Terminal Aerodrome Forecast
Issued by NWS Bismarck, ND

Home | Current Version | Previous Version | Graphics & Text | Print | Product List | Glossary On
Versions: 1 2 3 4 5 6 7 8 9 10 11 12 13 14 15 16 17 18 19 20
000
FTUS43 KBIS 272100 AAA
TAFBIS
TAF AMD
KBIS 272102Z 2721/2818 13012KT 1SM -SN BKN026 OVC035
     FM272300 15014KT 2SM -SN BR OVC012
     FM280000 15014KT 4SM -SN SCT005 OVC011
     FM280300 14010KT P6SM SCT015 SCT070=

USA.gov is the U.S. government's official web portal to all federal, state and local government web resources and services.